Time,TemperatureF,DewpointF,PressureIn,WindDirection,WindDirectionDegrees,WindSpeedMPH,WindSpeedGustMPH,Humidity,HourlyPrecipIn,Conditions,Clouds,dailyrainin,SolarRadiationWatts/m^2,SoftwareType,DateUTC
2013-06-02 00:01:00,62.0,44.0,-100.00,South,189,0.0,0.0,52,0.00,,,0.00,0.000000,,2013-06-02 07:01:00,
2013-06-02 00:11:00,62.0,44.0,-100.00,South,189,0.0,0.0,52,0.00,,,0.00,0.000000,,2013-06-02 07:11:00,
2013-06-02 00:32:00,59.0,41.0,-100.00,SSW,202,0.0,0.0,51,0.00,,,0.00,0.000000,,2013-06-02 07:32:00,
2013-06-02 01:32:00,59.0,40.0,-100.00,SW,235,0.0,0.0,49,-99.99,,,0.00,0.000000,,2013-06-02 08:32:00,
2013-06-02 01:52:00,59.0,40.0,-100.00,SW,235,0.0,0.0,49,-99.99,,,0.00,0.000000,,2013-06-02 08:52:00,
2013-06-02 02:01:00,59.0,40.0,-100.00,SW,235,0.0,0.0,49,-99.99,,,0.00,0.000000,,2013-06-02 09:01:00,
2013-06-02 02:11:00,59.0,40.0,-100.00,SW,235,0.0,0.0,49,-99.99,,,0.00,0.000000,,2013-06-02 09:11:00,
2013-06-02 02:33:00,61.0,35.0,-100.00,North,359,0.0,6.0,37,-99.99,,,0.00,0.000000,,2013-06-02 09:33:00,
2013-06-02 02:43:00,61.0,35.0,-100.00,North,359,0.0,6.0,37,-99.99,,,0.00,0.000000,,2013-06-02 09:43:00,
2013-06-02 02:53:00,61.0,35.0,-100.00,North,359,0.0,6.0,37,-99.99,,,0.00,0.000000,,2013-06-02 09:53:00,
2013-06-02 03:02:00,61.0,35.0,-100.00,North,359,0.0,6.0,37,-99.99,,,0.00,0.000000,,2013-06-02 10:02:00,
2013-06-02 03:12:00,61.0,35.0,-100.00,North,359,0.0,6.0,37,-99.99,,,0.00,0.000000,,2013-06-02 10:12:00,
2013-06-02 03:33:00,57.0,32.0,-100.00,NE,47,0.0,6.0,38,0.00,,,0.00,0.000000,,2013-06-02 10:33:00,
2013-06-02 03:42:00,57.0,32.0,-100.00,NE,47,0.0,6.0,38,0.00,,,0.00,0.000000,,2013-06-02 10:42:00,
2013-06-02 03:52:00,57.0,32.0,-100.00,NE,47,0.0,6.0,38,0.00,,,0.00,0.000000,,2013-06-02 10:52:00,
2013-06-02 04:32:00,56.0,29.0,-100.00,West,275,0.0,4.0,35,-99.99,,,0.00,0.000000,,2013-06-02 11:32:00,
2013-06-02 05:32:00,57.0,28.0,-100.00,NNE,22,0.0,4.0,33,-99.99,,,0.00,0.000000,,2013-06-02 12:32:00,
2013-06-02 05:42:00,57.0,28.0,-100.00,NNE,22,0.0,4.0,33,-99.99,,,0.00,0.000000,,2013-06-02 12:42:00,
2013-06-02 05:52:00,57.0,28.0,-100.00,NNE,22,0.0,4.0,33,-99.99,,,0.00,0.000000,,2013-06-02 12:52:00,
2013-06-02 06:01:00,57.0,28.0,-100.00,NNE,22,0.0,4.0,33,-99.99,,,0.00,0.000000,,2013-06-02 13:01:00,
2013-06-02 06:11:00,57.0,28.0,-100.00,NNE,22,0.0,4.0,33,-99.99,,,0.00,0.000000,,2013-06-02 13:11:00,
2013-06-02 06:42:00,56.0,27.0,-100.00,North,5,0.0,5.0,33,0.00,,,0.00,9.000000,,2013-06-02 13:42:00,
2013-06-02 06:52:00,56.0,27.0,-100.00,North,5,0.0,5.0,33,0.00,,,0.00,9.000000,,2013-06-02 13:52:00,
2013-06-02 07:32:00,71.0,31.0,-100.00,NNE,18,0.0,3.0,23,-99.99,,,0.00,199.000000,,2013-06-02 14:32:00,
2013-06-02 07:42:00,71.0,31.0,-100.00,NNE,18,0.0,3.0,23,-99.99,,,0.00,199.000000,,2013-06-02 14:42:00,
2013-06-02 07:52:00,71.0,31.0,-100.00,NNE,18,0.0,3.0,23,-99.99,,,0.00,199.000000,,2013-06-02 14:52:00,
2013-06-02 08:01:00,71.0,31.0,-100.00,NNE,18,0.0,3.0,23,-99.99,,,0.00,199.000000,,2013-06-02 15:01:00,
2013-06-02 08:11:00,71.0,31.0,-100.00,NNE,18,0.0,3.0,23,-99.99,,,0.00,199.000000,,2013-06-02 15:11:00,
2013-06-02 08:33:00,85.0,39.0,-100.00,East,92,0.0,0.0,20,0.00,,,0.00,474.000000,,2013-06-02 15:33:00,
2013-06-02 09:13:00,85.0,39.0,-100.00,East,92,0.0,0.0,20,0.00,,,0.00,474.000000,,2013-06-02 16:13:00,
2013-06-02 09:33:00,89.0,35.0,-100.00,South,174,6.0,10.0,15,0.00,,,0.00,727.000000,,2013-06-02 16:33:00,
2013-06-02 10:32:00,88.0,35.0,-100.00,SW,216,5.0,11.0,15,-99.99,,,0.00,950.000000,,2013-06-02 17:32:00,
2013-06-02 11:32:00,87.0,37.0,-100.00,SW,235,7.0,14.0,17,-99.99,,,0.00,1120.000000,,2013-06-02 18:32:00,
2013-06-02 12:32:00,89.0,45.0,-100.00,SW,230,5.0,14.0,22,-99.99,,,0.00,1220.000000,,2013-06-02 19:32:00,
2013-06-02 13:32:00,88.0,43.0,-100.00,South,191,6.0,14.0,21,-99.99,,,0.00,1251.000000,,2013-06-02 20:32:00,
2013-06-02 14:33:00,89.0,37.0,-100.00,SW,227,5.0,14.0,16,-99.99,,,0.00,1236.000000,,2013-06-02 21:33:00,
2013-06-02 15:33:00,90.0,39.0,-100.00,South,187,7.0,13.0,17,-99.99,,,0.00,1144.000000,,2013-06-02 22:33:00,
2013-06-02 16:32:00,89.0,40.0,-100.00,SSW,199,4.0,12.0,18,-99.99,,,0.00,978.000000,,2013-06-02 23:32:00,
2013-06-02 18:32:00,82.0,52.0,-100.00,WSW,257,4.0,13.0,35,-99.99,,,0.00,489.000000,,2013-06-03 01:32:00,
2013-06-02 19:32:00,73.0,50.0,-100.00,West,263,4.0,8.0,45,-99.99,,,0.00,230.000000,,2013-06-03 02:32:00,
2013-06-02 19:42:00,73.0,50.0,-100.00,West,263,4.0,8.0,45,-99.99,,,0.00,230.000000,,2013-06-03 02:42:00,
2013-06-02 19:52:00,73.0,50.0,-100.00,West,263,4.0,8.0,45,-99.99,,,0.00,230.000000,,2013-06-03 02:52:00,
2013-06-02 20:02:00,73.0,50.0,-100.00,West,263,4.0,8.0,45,-99.99,,,0.00,230.000000,,2013-06-03 03:02:00,
2013-06-02 20:12:00,73.0,50.0,-100.00,West,263,4.0,8.0,45,-99.99,,,0.00,230.000000,,2013-06-03 03:12:00,
2013-06-02 20:33:00,63.0,51.0,-100.00,West,265,0.0,6.0,65,0.00,,,0.00,11.000000,,2013-06-03 03:33:00,
2013-06-02 20:43:00,63.0,51.0,-100.00,West,265,0.0,6.0,65,0.00,,,0.00,11.000000,,2013-06-03 03:43:00,
2013-06-02 20:53:00,63.0,51.0,-100.00,West,265,0.0,6.0,65,0.00,,,0.00,11.000000,,2013-06-03 03:53:00,
2013-06-02 21:02:00,63.0,51.0,-100.00,West,265,0.0,6.0,65,0.00,,,0.00,11.000000,,2013-06-03 04:02:00,
2013-06-02 21:12:00,63.0,51.0,-100.00,West,265,0.0,6.0,65,0.00,,,0.00,11.000000,,2013-06-03 04:12:00,
2013-06-02 21:33:00,59.0,50.0,-100.00,SSW,210,0.0,0.0,73,0.00,,,0.00,0.000000,,2013-06-03 04:33:00,
2013-06-02 21:42:00,59.0,50.0,-100.00,SSW,210,0.0,0.0,73,0.00,,,0.00,0.000000,,2013-06-03 04:42:00,
2013-06-02 21:53:00,59.0,50.0,-100.00,SSW,210,0.0,0.0,73,0.00,,,0.00,0.000000,,2013-06-03 04:53:00,
2013-06-02 22:02:00,59.0,50.0,-100.00,SSW,210,0.0,0.0,73,0.00,,,0.00,0.000000,,2013-06-03 05:02:00,
2013-06-02 22:12:00,59.0,50.0,-100.00,SSW,210,0.0,0.0,73,0.00,,,0.00,0.000000,,2013-06-03 05:12:00,
2013-06-02 22:32:00,57.0,44.0,-100.00,South,184,0.0,0.0,61,0.00,,,0.00,0.000000,,2013-06-03 05:32:00,
2013-06-02 22:43:00,57.0,44.0,-100.00,South,184,0.0,0.0,61,0.00,,,0.00,0.000000,,2013-06-03 05:43:00,
2013-06-02 22:52:00,57.0,44.0,-100.00,South,184,0.0,0.0,61,0.00,,,0.00,0.000000,,2013-06-03 05:52:00,
2013-06-02 23:02:00,57.0,44.0,-100.00,South,184,0.0,0.0,61,0.00,,,0.00,0.000000,,2013-06-03 06:02:00,
2013-06-02 23:12:00,57.0,44.0,-100.00,South,184,0.0,0.0,61,0.00,,,0.00,0.000000,,2013-06-03 06:12:00,
2013-06-02 23:32:00,55.0,41.0,-100.00,SSW,197,0.0,0.0,58,0.00,,,0.00,0.000000,,2013-06-03 06:32:00,
2013-06-02 23:42:00,55.0,41.0,-100.00,SSW,197,0.0,0.0,58,0.00,,,0.00,0.000000,,2013-06-03 06:42:00,
2013-06-02 23:52:00,55.0,41.0,-100.00,SSW,197,0.0,0.0,58,0.00,,,0.00,0.000000,,2013-06-03 06:52:00,